createdAt,value
2019-03-23T00:05:01.028Z,8.87
2019-03-23T00:10:22.842Z,8.95
2019-03-23T00:15:44.957Z,9.11
2019-03-23T00:21:07.022Z,9.07
2019-03-23T00:26:28.974Z,8.98
2019-03-23T00:31:51.186Z,8.58
2019-03-23T00:37:12.790Z,8.58
2019-03-23T00:42:34.684Z,8.39
2019-03-23T00:47:56.387Z,8.21
2019-03-23T00:53:18.334Z,8.21
2019-03-23T00:58:39.971Z,7.99
2019-03-23T01:04:01.916Z,8.01
2019-03-23T01:09:23.903Z,8.45
2019-03-23T01:14:45.757Z,8.86
2019-03-23T01:20:09.146Z,8.99
2019-03-23T01:25:30.675Z,9.07
2019-03-23T01:30:52.407Z,9.04
2019-03-23T01:36:14.232Z,9.00
2019-03-23T01:41:37.490Z,9.02
2019-03-23T01:46:59.259Z,8.95
2019-03-23T01:52:21.020Z,9.02
2019-03-23T01:57:42.685Z,8.88
2019-03-23T02:03:04.859Z,9.02
2019-03-23T02:08:26.505Z,9.01
2019-03-23T02:13:48.496Z,8.81
2019-03-23T02:19:10.487Z,8.80
2019-03-23T02:24:32.268Z,8.71
2019-03-23T02:29:54.440Z,8.83
2019-03-23T02:35:15.900Z,8.90
2019-03-23T02:40:38.635Z,8.81
2019-03-23T02:46:00.642Z,8.63
2019-03-23T02:51:22.610Z,8.68
2019-03-23T02:56:44.526Z,8.66
2019-03-23T03:02:06.356Z,8.46
2019-03-23T03:07:40.754Z,8.50
2019-03-23T03:12:51.802Z,8.46
2019-03-23T03:18:13.455Z,8.31
2019-03-23T03:23:35.513Z,8.11
2019-03-23T03:28:56.998Z,8.12
2019-03-23T03:34:18.812Z,8.11
2019-03-23T03:39:40.535Z,7.83
2019-03-23T03:45:02.738Z,7.77
2019-03-23T03:50:24.902Z,7.77
2019-03-23T03:55:46.937Z,7.82
2019-03-23T04:01:08.578Z,7.88
2019-03-23T04:06:30.357Z,7.85
2019-03-23T04:11:52.040Z,7.85
2019-03-23T04:17:13.806Z,7.80
2019-03-23T04:22:35.533Z,7.91
2019-03-23T04:27:57.417Z,7.92
2019-03-23T04:33:19.227Z,8.03
2019-03-23T04:38:40.803Z,8.30
2019-03-23T04:44:04.213Z,9.08
2019-03-23T04:49:26.723Z,10.42
2019-03-23T04:54:48.378Z,11.11
2019-03-23T05:00:12.212Z,10.71
2019-03-23T05:05:33.729Z,11.24
2019-03-23T05:10:55.416Z,10.73
2019-03-23T05:16:17.510Z,10.20
2019-03-23T05:21:39.699Z,9.15
2019-03-23T05:27:01.507Z,8.20
2019-03-23T05:32:23.653Z,7.46
2019-03-23T05:37:45.555Z,7.32
2019-03-23T05:43:07.519Z,7.19
2019-03-23T05:48:29.074Z,7.36
2019-03-23T05:53:50.989Z,7.67
2019-03-23T05:59:12.880Z,7.81
2019-03-23T06:04:34.754Z,8.21
2019-03-23T06:09:56.785Z,8.56
2019-03-23T06:15:18.608Z,8.88
2019-03-23T06:20:40.417Z,9.15
2019-03-23T06:26:02.064Z,9.42
2019-03-23T06:31:23.642Z,9.60
2019-03-23T06:36:46.456Z,9.98
2019-03-23T06:42:08.759Z,10.41
2019-03-23T06:47:31.045Z,10.98
2019-03-23T06:52:53.084Z,11.45
2019-03-23T06:58:14.412Z,11.62
2019-03-23T07:03:36.255Z,11.75
2019-03-23T07:08:58.194Z,11.93
2019-03-23T07:14:20.071Z,12.16
2019-03-23T07:19:42.209Z,12.46
2019-03-23T07:25:04.749Z,12.57
2019-03-23T07:30:26.927Z,12.83
2019-03-23T07:35:51.942Z,13.10
2019-03-23T07:41:17.557Z,13.47
2019-03-23T07:46:43.993Z,13.49
2019-03-23T07:52:08.286Z,13.50
2019-03-23T07:57:34.185Z,13.61
2019-03-23T08:02:59.535Z,13.64
2019-03-23T08:08:25.714Z,13.87
2019-03-23T08:13:50.925Z,13.99
2019-03-23T08:19:15.375Z,14.41
2019-03-23T08:24:42.423Z,14.60
2019-03-23T08:30:08.415Z,14.47
2019-03-23T08:35:33.943Z,14.33
2019-03-23T08:40:58.407Z,14.48
2019-03-23T08:46:24.800Z,14.60
2019-03-23T08:51:50.012Z,14.90
2019-03-23T08:57:18.666Z,15.23
2019-03-23T09:02:42.570Z,15.10
2019-03-23T09:08:09.975Z,15.42
2019-03-23T09:13:40.603Z,15.31
2019-03-23T09:19:01.555Z,15.50
2019-03-23T09:24:27.826Z,15.74
2019-03-23T09:29:54.080Z,15.57
2019-03-23T09:35:21.864Z,15.48
2019-03-23T09:40:47.719Z,15.75
2019-03-23T09:46:13.446Z,15.92
2019-03-23T09:51:37.381Z,16.16
2019-03-23T09:57:01.926Z,16.60
2019-03-23T10:02:25.945Z,16.73
2019-03-23T10:07:51.806Z,16.77
2019-03-23T10:13:17.722Z,16.98
2019-03-23T10:18:42.859Z,16.32
2019-03-23T10:24:13.042Z,16.79
2019-03-23T10:29:38.095Z,17.33
2019-03-23T10:35:02.575Z,17.38
2019-03-23T10:40:32.362Z,17.59
2019-03-23T10:45:56.895Z,17.23
2019-03-23T10:51:29.197Z,17.72
2019-03-23T10:56:53.074Z,17.71
2019-03-23T11:02:21.353Z,17.77
2019-03-23T11:07:45.523Z,17.81
2019-03-23T11:13:15.193Z,18.07
2019-03-23T11:18:40.303Z,17.98
2019-03-23T11:24:04.601Z,18.30
2019-03-23T11:29:28.867Z,18.18
2019-03-23T11:34:53.667Z,18.46
2019-03-23T11:40:21.242Z,18.62
2019-03-23T11:45:46.385Z,18.25
2019-03-23T11:51:27.281Z,18.46
2019-03-23T11:56:51.681Z,18.32
2019-03-23T12:02:02.330Z,18.20
2019-03-23T12:07:08.401Z,18.46
2019-03-23T12:12:26.302Z,18.62
2019-03-23T12:17:33.714Z,18.74
2019-03-23T12:22:40.480Z,18.74
2019-03-23T12:27:46.917Z,18.84
2019-03-23T12:33:14.539Z,18.18
2019-03-23T12:38:40.947Z,17.67
2019-03-23T12:44:07.188Z,17.80
2019-03-23T12:49:34.042Z,18.00
2019-03-23T12:54:58.005Z,18.01
2019-03-23T13:00:23.119Z,18.16
2019-03-23T13:05:49.274Z,17.91
2019-03-23T13:11:35.532Z,17.97
2019-03-23T13:16:58.909Z,18.02
2019-03-23T13:22:24.405Z,17.74
2019-03-23T13:27:52.573Z,17.90
2019-03-23T13:33:17.595Z,17.94
2019-03-23T13:38:47.044Z,17.94
2019-03-23T13:44:18.316Z,17.84
2019-03-23T13:49:47.040Z,17.82
2019-03-23T13:55:20.891Z,17.80
2019-03-23T14:00:48.199Z,17.75
2019-03-23T14:06:15.084Z,17.83
2019-03-23T14:11:54.992Z,18.04
2019-03-23T14:17:21.285Z,18.07
2019-03-23T14:22:48.774Z,18.10
2019-03-23T14:28:17.606Z,18.04
2019-03-23T14:33:45.212Z,17.53
2019-03-23T14:39:15.070Z,17.63
2019-03-23T14:44:43.665Z,17.22
2019-03-23T14:50:10.747Z,16.69
2019-03-23T14:55:37.625Z,16.42
2019-03-23T15:01:05.975Z,16.17
2019-03-23T15:06:33.451Z,15.96
2019-03-23T15:11:59.353Z,15.78
2019-03-23T15:17:26.116Z,15.92
2019-03-23T15:22:50.073Z,15.95
2019-03-23T15:28:17.292Z,15.92
2019-03-23T15:33:41.246Z,15.72
2019-03-23T15:39:06.642Z,15.55
2019-03-23T15:44:30.963Z,15.39
2019-03-23T15:50:03.165Z,14.99
2019-03-23T15:55:36.280Z,14.78
2019-03-23T16:01:06.583Z,14.52
2019-03-23T16:06:34.020Z,13.97
2019-03-23T16:12:12.793Z,13.70
2019-03-23T16:17:38.587Z,13.21
2019-03-23T16:23:03.494Z,13.10
2019-03-23T16:28:28.377Z,12.97
2019-03-23T16:33:52.159Z,12.90
2019-03-23T16:39:21.661Z,12.38
2019-03-23T16:44:46.226Z,12.59
2019-03-23T16:50:14.008Z,12.48
2019-03-23T16:55:42.386Z,12.16
2019-03-23T17:01:13.065Z,12.08
2019-03-23T17:06:49.031Z,11.88
2019-03-23T17:12:13.298Z,11.62
2019-03-23T17:17:39.578Z,11.45
2019-03-23T17:23:17.797Z,11.17
2019-03-23T17:28:44.119Z,10.83
2019-03-23T17:34:05.987Z,10.59
2019-03-23T17:39:34.018Z,10.27
2019-03-23T17:44:56.175Z,10.13
2019-03-23T17:50:18.093Z,10.19
2019-03-23T17:55:40.564Z,10.20
2019-03-23T18:01:03.086Z,10.20
2019-03-23T18:06:27.392Z,10.00
2019-03-23T18:11:49.417Z,10.10
2019-03-23T18:17:11.263Z,9.92
2019-03-23T18:22:33.160Z,9.82
2019-03-23T18:27:54.926Z,9.90
2019-03-23T18:33:16.556Z,9.68
2019-03-23T18:38:38.399Z,9.70
2019-03-23T18:44:00.249Z,9.36
2019-03-23T18:49:22.265Z,9.16
2019-03-23T18:55:20.961Z,9.08
2019-03-23T19:00:43.655Z,9.18
2019-03-23T19:06:06.279Z,9.23
2019-03-23T19:11:30.402Z,9.54
2019-03-23T19:16:52.952Z,9.54
2019-03-23T19:22:14.873Z,9.08
2019-03-23T19:27:41.951Z,8.87
2019-03-23T19:33:06.496Z,9.04
2019-03-23T19:38:31.126Z,8.82
2019-03-23T19:43:55.107Z,8.97
2019-03-23T19:49:17.066Z,8.54
2019-03-23T19:54:39.099Z,8.96
2019-03-23T20:00:00.955Z,9.00
2019-03-23T20:05:22.540Z,8.74
2019-03-23T20:10:44.337Z,8.58
2019-03-23T20:16:06.498Z,8.51
2019-03-23T20:21:28.245Z,8.44
2019-03-23T20:26:50.039Z,8.43
2019-03-23T20:32:12.270Z,8.33
2019-03-23T20:37:33.882Z,8.33
2019-03-23T20:42:55.653Z,8.06
2019-03-23T20:48:18.126Z,8.09
2019-03-23T20:53:39.910Z,7.92
2019-03-23T20:59:02.072Z,8.03
2019-03-23T21:04:24.481Z,7.83
2019-03-23T21:09:46.578Z,7.80
2019-03-23T21:15:08.951Z,7.72
2019-03-23T21:20:31.705Z,7.73
2019-03-23T21:25:53.559Z,7.57
2019-03-23T21:31:15.279Z,7.24
2019-03-23T21:36:37.414Z,7.34
2019-03-23T21:41:59.449Z,7.31
2019-03-23T21:47:21.963Z,7.29
2019-03-23T21:52:43.930Z,7.23
2019-03-23T21:58:05.573Z,7.20
2019-03-23T22:03:27.466Z,7.24
2019-03-23T22:08:49.112Z,7.29
2019-03-23T22:14:11.785Z,7.20
2019-03-23T22:19:33.768Z,7.31
2019-03-23T22:25:02.577Z,7.37
2019-03-23T22:30:24.284Z,7.30
2019-03-23T22:35:46.227Z,7.02
2019-03-23T22:41:08.234Z,7.14
2019-03-23T22:46:29.923Z,7.17
2019-03-23T22:51:51.950Z,7.05
2019-03-23T22:57:14.064Z,6.97
2019-03-23T23:02:36.226Z,7.01
2019-03-23T23:07:57.971Z,7.04
2019-03-23T23:13:19.821Z,6.89
2019-03-23T23:18:41.365Z,6.73
2019-03-23T23:24:03.282Z,6.55
2019-03-23T23:29:24.831Z,6.53
2019-03-23T23:34:46.414Z,6.42
2019-03-23T23:40:08.610Z,6.43
2019-03-23T23:45:30.538Z,6.33
2019-03-23T23:50:53.319Z,6.22
2019-03-23T23:56:14.838Z,6.13
